Time;durP1;ratioP1;P1;durP2;ratioP2;P2;SDS_P1;SDS_P2;PMS_P1;PMS_P2;Temp;Humidity;BMP_temperature;BMP_pressure;BME280_temperature;BME280_humidity;BME280_pressure;Samples;Min_cycle;Max_cycle;Signal;HPM_P1;HPM_P2
2023/04/09 00:00:14;;;;;;;14.40;12.80;;;;;;;8.56;74.40;101247.48;216152;1253;60585;-73
2023/04/09 00:05:08;;;;;;;15.00;12.60;;;;;;;8.53;74.55;101251.20;216197;1251;68307;-73
2023/04/09 00:10:01;;;;;;;14.70;12.50;;;;;;;8.52;74.84;101243.21;215933;1251;183424;-73
2023/04/09 00:14:54;;;;;;;16.50;12.30;;;;;;;8.49;74.94;101245.70;216172;1251;60543;-73
2023/04/09 00:19:47;;;;;;;14.90;12.00;;;;;;;8.47;74.94;101241.48;216205;1251;72706;-73
2023/04/09 00:24:40;;;;;;;13.80;11.60;;;;;;;8.47;75.13;101238.04;216117;1251;61131;-72
2023/04/09 00:29:33;;;;;;;15.00;11.80;;;;;;;8.44;74.96;101239.51;216160;1250;60421;-73
2023/04/09 00:34:26;;;;;;;13.40;11.90;;;;;;;8.40;75.26;101238.46;216207;1251;60480;-73
2023/04/09 00:39:19;;;;;;;16.10;12.70;;;;;;;8.33;75.28;101235.80;216083;1251;61276;-72
2023/04/09 00:44:12;;;;;;;13.10;11.00;;;;;;;8.28;75.56;101240.63;216226;1251;60467;-73
2023/04/09 00:49:05;;;;;;;12.90;10.90;;;;;;;8.24;75.33;101235.67;216280;1251;60562;-72
2023/04/09 00:54:00;;;;;;;14.60;11.60;;;;;;;8.19;75.63;101237.56;216225;1252;67625;-73
2023/04/09 00:58:54;;;;;;;12.30;10.50;;;;;;;8.14;75.46;101244.28;216157;1251;60445;-73
2023/04/09 01:03:47;;;;;;;13.00;11.10;;;;;;;8.09;75.59;101250.50;216216;1251;74663;-73
2023/04/09 01:09:05;;;;;;;11.90;10.20;;;;;;;7.99;75.58;101246.01;216220;1251;70405;-72
2023/04/09 01:14:32;;;;;;;12.80;11.20;;;;;;;7.88;75.76;101252.17;216328;1251;60461;-72
2023/04/09 01:19:50;;;;;;;13.60;11.40;;;;;;;7.80;75.55;101255.17;216275;1251;65942;-73
2023/04/09 01:25:04;;;;;;;11.20;9.70;;;;;;;7.72;75.76;101252.61;216198;1251;60575;-73
2023/04/09 01:30:07;;;;;;;17.00;11.10;;;;;;;7.64;75.69;101249.91;216168;1253;73731;-73
2023/04/09 01:35:02;;;;;;;11.60;10.30;;;;;;;7.61;75.97;101249.96;216085;1251;72862;-72
2023/04/09 01:39:56;;;;;;;12.60;10.70;;;;;;;7.61;76.25;101255.85;216186;1251;60577;-72
2023/04/09 01:44:50;;;;;;;14.10;10.60;;;;;;;7.63;76.51;101259.20;216170;1253;67112;-72
2023/04/09 01:49:44;;;;;;;13.40;11.20;;;;;;;7.65;76.45;101265.14;216098;1255;60427;-73
2023/04/09 01:54:37;;;;;;;12.60;10.30;;;;;;;7.67;76.59;101269.67;216105;1251;72539;-72
2023/04/09 01:59:30;;;;;;;14.40;11.90;;;;;;;7.66;76.56;101270.34;216030;1251;60559;-73
2023/04/09 02:04:35;;;;;;;11.90;10.40;;;;;;;7.66;76.60;101270.87;216130;1251;60586;-73
2023/04/09 02:09:31;;;;;;;15.50;11.80;;;;;;;7.66;76.56;101271.70;216100;1251;67729;-73
2023/04/09 02:14:26;;;;;;;12.80;10.70;;;;;;;7.66;76.68;101271.02;216118;1255;60479;-73
2023/04/09 02:19:19;;;;;;;12.90;10.20;;;;;;;7.58;76.46;101265.77;216105;1253;75553;-73
2023/04/09 02:24:12;;;;;;;17.70;14.00;;;;;;;7.50;76.73;101263.19;216057;1253;60461;-72
2023/04/09 02:29:05;;;;;;;14.40;11.90;;;;;;;7.50;77.25;101263.71;216124;1255;60426;-73
2023/04/09 02:33:57;;;;;;;14.50;11.60;;;;;;;7.50;77.08;101265.60;216103;1255;60567;-73
2023/04/09 02:38:50;;;;;;;16.70;12.20;;;;;;;7.46;77.09;101258.02;216141;1255;60541;-73
2023/04/09 02:43:44;;;;;;;14.50;11.60;;;;;;;7.43;77.24;101258.09;216108;1255;73012;-72
2023/04/09 02:48:37;;;;;;;15.00;12.10;;;;;;;7.45;77.54;101260.93;216107;1252;60534;-72
2023/04/09 02:53:30;;;;;;;13.70;11.50;;;;;;;7.48;77.65;101258.98;216043;1253;60502;-73
2023/04/09 02:58:22;;;;;;;15.00;10.90;;;;;;;7.45;77.19;101259.03;216163;1252;60563;-73
2023/04/09 03:03:15;;;;;;;15.00;11.20;;;;;;;7.42;77.44;101254.80;216115;1253;60552;-73
2023/04/09 03:08:08;;;;;;;14.10;11.60;;;;;;;7.38;77.47;101246.86;216168;1253;60485;-73
2023/04/09 03:13:01;;;;;;;14.20;11.90;;;;;;;7.36;77.69;101241.80;215993;1255;60449;-73
2023/04/09 03:17:54;;;;;;;15.40;11.90;;;;;;;7.36;77.88;101239.04;216079;1254;62065;-72
2023/04/09 03:22:47;;;;;;;15.20;12.60;;;;;;;7.38;77.87;101245.82;216127;1251;60480;-73
2023/04/09 03:27:47;;;;;;;15.50;13.10;;;;;;;7.29;77.76;101247.21;216204;1251;60439;-72
2023/04/09 03:32:45;;;;;;;13.90;11.50;;;;;;;7.14;77.57;101246.45;216083;1253;73512;-73
2023/04/09 03:37:39;;;;;;;12.60;9.50;;;;;;;6.96;76.92;101246.09;216197;1251;71895;-73
2023/04/09 03:42:38;;;;;;;11.40;9.40;;;;;;;6.76;76.56;101240.79;216150;1253;60761;-72
2023/04/09 03:47:33;;;;;;;9.60;8.10;;;;;;;6.54;76.25;101238.02;216131;1253;67106;-73
2023/04/09 03:52:27;;;;;;;11.30;9.60;;;;;;;6.40;76.79;101241.74;216261;1252;60386;-73
2023/04/09 03:57:27;;;;;;;10.90;8.50;;;;;;;6.31;77.04;101240.98;216177;1251;73841;-73
2023/04/09 04:02:19;;;;;;;12.70;10.10;;;;;;;6.19;76.57;101246.16;216145;1253;73694;-73
2023/04/09 04:07:21;;;;;;;13.80;10.50;;;;;;;6.10;76.92;101260.42;216139;1253;60531;-73
2023/04/09 04:12:19;;;;;;;13.10;10.60;;;;;;;6.08;76.94;101264.64;216153;1253;67187;-72
2023/04/09 04:17:44;;;;;;;15.00;11.10;;;;;;;6.08;77.13;101270.34;215994;1253;60645;-73
2023/04/09 04:22:43;;;;;;;15.70;11.30;;;;;;;6.10;77.32;101277.63;216133;1255;74918;-73
2023/04/09 04:27:36;;;;;;;13.40;10.80;;;;;;;6.17;77.52;101279.33;216074;1251;71258;-72
2023/04/09 04:32:30;;;;;;;12.60;11.00;;;;;;;6.26;77.54;101276.74;216060;1251;60762;-72
2023/04/09 04:37:27;;;;;;;16.00;12.40;;;;;;;6.36;77.73;101279.27;216157;1253;65992;-73
2023/04/09 04:42:23;;;;;;;15.20;12.10;;;;;;;6.47;77.53;101284.04;216130;1253;60871;-73
2023/04/09 04:47:16;;;;;;;16.70;12.60;;;;;;;6.56;77.63;101288.69;216182;1254;74908;-72
2023/04/09 04:52:09;;;;;;;16.10;12.20;;;;;;;6.63;77.93;101287.64;216307;1251;60780;-73
2023/04/09 04:57:03;;;;;;;14.10;11.50;;;;;;;6.73;78.04;101287.70;216392;1253;60447;-73
2023/04/09 05:01:59;;;;;;;14.50;11.50;;;;;;;6.78;78.01;101284.46;216194;1253;65841;-73
2023/04/09 05:06:53;;;;;;;16.60;12.90;;;;;;;6.84;78.21;101287.30;216133;1252;60816;-73
2023/04/09 05:11:46;;;;;;;16.50;13.50;;;;;;;6.96;78.21;101291.23;216299;1253;74758;-72
2023/04/09 05:16:43;;;;;;;16.40;13.30;;;;;;;7.09;78.41;101290.55;216059;1253;71879;-73
2023/04/09 05:21:36;;;;;;;17.30;13.20;;;;;;;7.28;78.58;101285.98;216196;1251;63153;-72
2023/04/09 05:26:30;;;;;;;19.20;14.60;;;;;;;7.51;78.48;101282.02;216177;1253;65008;-74
2023/04/09 05:31:23;;;;;;;22.50;16.50;;;;;;;7.74;78.62;101285.66;216102;1253;60543;-72
2023/04/09 05:36:35;;;;;;;20.10;16.10;;;;;;;8.10;78.35;101287.15;216175;1253;74437;-73
2023/04/09 05:41:28;;;;;;;23.80;17.80;;;;;;;8.56;77.96;101280.33;216213;1255;71631;-72
2023/04/09 05:46:44;;;;;;;21.80;18.30;;;;;;;9.04;77.65;101278.11;216126;1251;60980;-73
2023/04/09 05:51:38;;;;;;;20.10;16.30;;;;;;;9.31;77.58;101282.95;216240;1251;66893;-73
2023/04/09 05:56:32;;;;;;;17.90;15.40;;;;;;;9.45;76.93;101280.61;216184;1253;60467;-73
2023/04/09 06:01:25;;;;;;;16.40;13.70;;;;;;;9.58;76.44;101281.86;216191;1251;74400;-73
2023/04/09 06:06:19;;;;;;;16.70;14.70;;;;;;;9.78;76.10;101283.30;216083;1252;72164;-73
2023/04/09 06:11:12;;;;;;;15.60;13.70;;;;;;;10.08;75.75;101292.13;216043;1251;60763;-73
2023/04/09 06:16:06;;;;;;;15.20;13.50;;;;;;;10.37;75.01;101290.52;216050;1254;67893;-73
2023/04/09 06:21:07;;;;;;;16.00;13.80;;;;;;;10.62;74.96;101287.05;216225;1253;60475;-72
2023/04/09 06:26:00;;;;;;;16.80;14.60;;;;;;;10.90;74.04;101289.10;216222;1253;73696;-72
2023/04/09 06:30:54;;;;;;;15.00;13.40;;;;;;;11.09;73.54;101297.39;216089;1251;73672;-72
2023/04/09 06:35:47;;;;;;;13.00;11.40;;;;;;;11.21;73.30;101300.10;216130;1253;60401;-72
2023/04/09 06:40:40;;;;;;;13.10;11.70;;;;;;;11.35;72.73;101298.34;216135;1253;67116;-73
2023/04/09 06:45:34;;;;;;;13.30;11.50;;;;;;;11.55;72.55;101298.12;216344;1253;60520;-73
2023/04/09 06:50:27;;;;;;;12.40;11.00;;;;;;;11.94;72.17;101295.83;216305;1251;74719;-73
2023/04/09 06:55:20;;;;;;;13.00;11.60;;;;;;;12.42;71.04;101293.83;216402;1251;73715;-73
2023/04/09 07:00:13;;;;;;;12.80;11.50;;;;;;;12.81;70.25;101298.52;216256;1255;60498;-73
2023/04/09 07:05:06;;;;;;;12.50;11.10;;;;;;;13.07;70.08;101306.58;216101;1253;67598;-73
2023/04/09 07:10:00;;;;;;;12.80;10.80;;;;;;;13.09;69.68;101308.90;216152;1254;60556;-73
2023/04/09 07:14:53;;;;;;;11.30;10.20;;;;;;;13.12;69.42;101311.20;216269;1254;73627;-73
2023/04/09 07:19:46;;;;;;;12.60;11.30;;;;;;;13.07;69.42;101315.13;216241;1253;60525;-73
2023/04/09 07:24:39;;;;;;;13.20;11.90;;;;;;;13.13;69.33;101316.27;216339;1252;60407;-73
2023/04/09 07:29:31;;;;;;;11.10;10.00;;;;;;;13.58;68.57;101316.45;216151;1251;60540;-73
2023/04/09 07:34:25;;;;;;;11.70;10.60;;;;;;;14.17;67.66;101313.38;216231;1251;60554;-73
2023/04/09 07:39:19;;;;;;;11.90;10.70;;;;;;;15.63;65.49;101308.54;216333;1253;60425;-73
2023/04/09 07:44:13;;;;;;;9.50;8.60;;;;;;;16.33;64.56;101310.46;216205;1252;72338;-73
2023/04/09 07:49:06;;;;;;;9.30;8.40;;;;;;;17.27;63.06;101310.73;216462;1252;60521;-73
2023/04/09 07:53:59;;;;;;;9.40;8.20;;;;;;;17.69;61.61;101309.60;216345;1255;60568;-73
2023/04/09 07:58:52;;;;;;;11.00;9.00;;;;;;;19.25;59.17;101296.86;216099;1254;60528;-73
2023/04/09 08:03:45;;;;;;;9.00;8.10;;;;;;;20.50;56.90;101289.95;216074;1252;73773;-73
2023/04/09 08:08:38;;;;;;;8.30;7.50;;;;;;;19.87;56.07;101294.32;216112;1254;71391;-73
2023/04/09 08:13:31;;;;;;;8.60;7.90;;;;;;;18.70;56.05;101295.05;216167;1256;60451;-73
2023/04/09 08:18:24;;;;;;;9.70;8.60;;;;;;;17.56;57.67;101301.38;216355;1256;60959;-73
2023/04/09 08:23:16;;;;;;;8.80;7.90;;;;;;;16.74;57.71;101299.34;216358;1251;60431;-74
2023/04/09 08:28:09;;;;;;;8.40;7.60;;;;;;;16.20;58.09;101301.84;216400;1253;60524;-73
2023/04/09 08:33:02;;;;;;;8.10;7.40;;;;;;;15.96;58.66;101301.58;216393;1251;60582;-73
2023/04/09 08:37:56;;;;;;;9.10;7.70;;;;;;;16.20;59.28;101297.48;216383;1254;60464;-73
2023/04/09 08:42:55;;;;;;;9.90;9.00;;;;;;;16.33;59.27;101300.67;216365;1252;67475;-73
2023/04/09 08:47:51;;;;;;;9.50;7.80;;;;;;;16.19;58.86;101307.44;216481;1254;60534;-73
2023/04/09 08:52:46;;;;;;;8.40;7.60;;;;;;;16.04;58.43;101309.48;216355;1251;74949;-73
2023/04/09 08:57:40;;;;;;;8.30;7.50;;;;;;;15.98;58.58;101313.84;216296;1255;72844;-73
2023/04/09 09:02:33;;;;;;;8.40;7.60;;;;;;;16.07;57.82;101312.30;216382;1253;60716;-73
2023/04/09 09:07:29;;;;;;;8.90;7.90;;;;;;;16.05;57.69;101310.19;216306;1254;66943;-73
2023/04/09 09:12:32;;;;;;;8.00;7.20;;;;;;;16.51;57.02;101305.06;216308;1257;60533;-73
2023/04/09 09:17:25;;;;;;;7.50;6.80;;;;;;;17.86;55.13;101299.56;216255;1256;72573;-73
2023/04/09 09:22:18;;;;;;;8.20;7.30;;;;;;;18.14;55.15;101304.89;216418;1256;73806;-73
2023/04/09 09:27:11;;;;;;;6.70;6.10;;;;;;;18.42;54.79;101296.66;216454;1252;60809;-73
2023/04/09 09:32:13;;;;;;;9.70;8.20;;;;;;;18.26;54.94;101298.33;216349;1254;60540;-73
2023/04/09 09:37:27;;;;;;;8.30;7.40;;;;;;;18.16;54.07;101298.70;216435;1251;60464;-73
2023/04/09 09:42:19;;;;;;;9.00;8.10;;;;;;;18.39;53.43;101299.14;216424;1254;74628;-73
2023/04/09 09:47:13;;;;;;;7.40;6.70;;;;;;;18.26;53.27;101304.45;216323;1255;60419;-73
2023/04/09 09:52:09;;;;;;;9.50;6.80;;;;;;;20.20;50.65;101291.25;216409;1251;60454;-73
2023/04/09 09:57:06;;;;;;;6.80;6.10;;;;;;;19.47;51.32;101289.29;216388;1254;66227;-73
2023/04/09 10:02:06;;;;;;;10.80;5.80;;;;;;;18.36;52.09;101292.29;216357;1254;60537;-74
2023/04/09 10:07:02;;;;;;;7.60;5.70;;;;;;;18.19;52.23;101291.23;216312;1254;72150;-73
2023/04/09 10:11:59;;;;;;;6.90;6.20;;;;;;;20.01;50.20;101285.88;216375;1254;73129;-73
2023/04/09 10:16:52;;;;;;;6.10;5.60;;;;;;;22.13;48.00;101275.83;216299;1254;60522;-73
2023/04/09 10:22:05;;;;;;;7.60;5.70;;;;;;;22.76;46.52;101276.54;216421;1251;65857;-74
2023/04/09 10:27:09;;;;;;;6.50;5.90;;;;;;;21.17;46.96;101280.23;216385;1256;60450;-73
2023/04/09 10:32:08;;;;;;;;;;;;;;;22.20;45.99;101279.98;216442;1254;73546;-74
2023/04/09 10:37:01;;;;;;;6.80;6.10;;;;;;;21.97;45.62;101282.23;216391;1253;73137;-74
2023/04/09 10:41:56;;;;;;;6.70;5.40;;;;;;;21.25;46.44;101277.97;216437;1251;61144;-73
2023/04/09 10:46:50;;;;;;;7.00;6.20;;;;;;;20.27;47.19;101278.13;216318;1255;66056;-73
2023/04/09 10:51:51;;;;;;;9.80;8.90;;;;;;;19.41;48.18;101278.12;216473;1251;60563;-73
2023/04/09 10:57:13;;;;;;;8.40;7.30;;;;;;;18.74;48.62;101274.85;216436;1254;71569;-73
2023/04/09 11:02:30;;;;;;;8.10;7.20;;;;;;;17.93;49.06;101278.66;216369;1253;72339;-73
2023/04/09 11:07:25;;;;;;;7.10;6.20;;;;;;;17.43;50.43;101281.27;215188;1260;60932;-74
2023/04/09 11:12:18;;;;;;;8.10;6.20;;;;;;;17.19;50.78;101280.09;215295;1260;66338;-73
2023/04/09 11:17:10;;;;;;;8.70;6.90;;;;;;;17.24;51.04;101275.70;215280;1260;60615;-73
2023/04/09 11:22:05;;;;;;;7.20;6.50;;;;;;;17.44;51.02;101272.51;215237;1260;61132;-73
2023/04/09 11:27:00;;;;;;;11.50;9.40;;;;;;;17.54;50.65;101271.25;215275;1260;73779;-73
2023/04/09 11:31:53;;;;;;;14.90;13.40;;;;;;;17.67;50.50;101265.59;215239;1260;60562;-73
2023/04/09 11:36:49;;;;;;;9.50;8.50;;;;;;;17.70;50.47;101267.16;215259;1259;65785;-73
2023/04/09 11:41:43;;;;;;;5.90;5.00;;;;;;;18.54;50.73;101263.36;215223;1263;60476;-73
2023/04/09 11:46:38;;;;;;;7.00;6.40;;;;;;;19.22;49.83;101259.67;216419;1253;73659;-74
2023/04/09 11:51:31;;;;;;;6.80;5.80;;;;;;;19.38;48.72;101260.23;216384;1251;73678;-73
2023/04/09 11:56:24;;;;;;;12.30;9.00;;;;;;;18.63;48.81;101260.01;216415;1254;61421;-73
2023/04/09 12:01:17;;;;;;;6.50;5.60;;;;;;;17.97;49.08;101265.13;216239;1252;67421;-73
2023/04/09 12:06:11;;;;;;;5.70;5.10;;;;;;;17.50;50.32;101262.16;216355;1253;60576;-73
2023/04/09 12:11:15;;;;;;;5.90;5.30;;;;;;;17.07;51.03;101262.76;216300;1251;131969;-73
2023/04/09 12:16:09;;;;;;;6.50;5.80;;;;;;;16.66;51.64;101262.04;216365;1256;71438;-73
2023/04/09 12:21:02;;;;;;;6.50;5.90;;;;;;;16.34;52.11;101261.64;216335;1254;60450;-73
2023/04/09 12:25:55;;;;;;;5.70;4.70;;;;;;;16.05;52.54;101264.55;216491;1251;68199;-73
2023/04/09 12:30:48;;;;;;;7.10;6.40;;;;;;;15.79;52.96;101266.02;216444;1254;60447;-73
2023/04/09 12:35:41;;;;;;;6.60;5.60;;;;;;;15.52;53.26;101267.96;216476;1251;73821;-73
2023/04/09 12:40:36;;;;;;;9.20;5.70;;;;;;;15.26;53.75;101269.56;216358;1251;60555;-73
2023/04/09 12:45:30;;;;;;;6.80;6.20;;;;;;;15.04;54.22;101270.27;216470;1255;60583;-73
2023/04/09 12:50:23;;;;;;;8.50;6.30;;;;;;;14.87;55.63;101266.49;216359;1252;66397;-73
2023/04/09 12:55:16;;;;;;;6.40;5.60;;;;;;;14.73;56.68;101265.84;216484;1251;60469;-73
2023/04/09 13:00:10;;;;;;;6.90;4.90;;;;;;;14.62;57.41;101265.75;216514;1251;71453;-73
2023/04/09 13:05:04;;;;;;;7.20;6.60;;;;;;;14.53;57.69;101267.89;216376;1251;70879;-73
2023/04/09 13:09:57;;;;;;;7.00;6.40;;;;;;;14.39;57.70;101269.86;216442;1255;60585;-73
2023/04/09 13:14:52;;;;;;;6.50;5.50;;;;;;;14.29;58.11;101262.61;216305;1253;68104;-73
2023/04/09 13:19:45;;;;;;;6.80;6.00;;;;;;;14.27;58.33;101262.77;216448;1255;66781;-75
2023/04/09 13:24:38;;;;;;;10.60;8.40;;;;;;;14.41;58.76;101258.19;216421;1255;60522;-73
2023/04/09 13:29:31;;;;;;;8.60;6.60;;;;;;;14.59;59.14;101256.27;216414;1253;72336;-73
2023/04/09 13:34:25;;;;;;;7.00;6.30;;;;;;;14.75;59.30;101255.39;216485;1256;60790;-73
2023/04/09 13:39:18;;;;;;;8.80;6.80;;;;;;;14.95;59.54;101252.77;216421;1253;67072;-73
2023/04/09 13:44:11;;;;;;;6.20;5.60;;;;;;;15.09;59.66;101243.60;216407;1251;60411;-74
2023/04/09 13:49:03;;;;;;;6.30;5.70;;;;;;;15.47;59.77;101236.66;216481;1251;60412;-73
2023/04/09 13:53:56;;;;;;;6.40;5.80;;;;;;;15.80;58.84;101240.86;216512;1255;60558;-73
2023/04/09 13:58:49;;;;;;;7.10;5.80;;;;;;;15.83;58.44;101241.76;216418;1251;60462;-74
2023/04/09 14:03:43;;;;;;;7.10;6.10;;;;;;;16.34;58.32;101232.79;216427;1251;60952;-73
2023/04/09 14:08:36;;;;;;;6.60;5.90;;;;;;;16.68;57.45;101231.06;216477;1253;60412;-73
2023/04/09 14:13:31;;;;;;;6.30;5.50;;;;;;;16.76;56.68;101230.88;216451;1252;72321;-73
2023/04/09 14:18:23;;;;;;;8.70;6.40;;;;;;;16.67;56.51;101228.95;216449;1253;73085;-73
2023/04/09 14:23:16;;;;;;;5.50;5.00;;;;;;;16.44;56.29;101225.11;216516;1252;60378;-73
2023/04/09 14:28:09;;;;;;;5.30;4.20;;;;;;;16.29;56.53;101221.59;216464;1256;60475;-73
2023/04/09 14:33:02;;;;;;;5.90;4.90;;;;;;;16.12;56.39;101220.70;216421;1253;60453;-74
2023/04/09 14:37:55;;;;;;;4.20;3.90;;;;;;;15.91;57.07;101217.83;216447;1254;60549;-73
2023/04/09 14:42:49;;;;;;;5.40;4.90;;;;;;;15.80;57.03;101220.59;216439;1251;60549;-73
2023/04/09 14:47:41;;;;;;;4.30;3.90;;;;;;;15.65;57.13;101213.86;216380;1253;60432;-73
2023/04/09 14:52:34;;;;;;;36.30;29.80;;;;;;;15.68;57.01;101207.77;216358;1253;66491;-73
2023/04/09 14:57:27;;;;;;;9.20;7.80;;;;;;;15.94;56.44;101207.88;216350;1253;60514;-73
2023/04/09 15:02:20;;;;;;;8.40;7.30;;;;;;;15.71;56.28;101208.47;216370;1253;60466;-73
2023/04/09 15:07:13;;;;;;;6.30;4.90;;;;;;;15.85;56.37;101208.71;216337;1252;71414;-73
2023/04/09 15:12:07;;;;;;;8.50;7.50;;;;;;;16.26;56.01;101205.65;216365;1251;60444;-73
2023/04/09 15:17:00;;;;;;;6.70;5.60;;;;;;;16.67;55.58;101210.23;216395;1253;67112;-73
2023/04/09 15:21:53;;;;;;;6.50;5.30;;;;;;;16.82;54.86;101206.03;216367;1252;60470;-73
2023/04/09 15:26:46;;;;;;;4.20;3.70;;;;;;;17.06;54.26;101207.77;216375;1251;60794;-73
2023/04/09 15:31:39;;;;;;;4.50;4.10;;;;;;;17.20;53.73;101199.67;216396;1251;60459;-73
2023/04/09 15:36:33;;;;;;;5.10;4.50;;;;;;;16.90;53.37;101198.32;216496;1251;60603;-73
2023/04/09 15:41:26;;;;;;;4.80;4.20;;;;;;;16.43;53.75;101195.01;216196;1251;66954;-72
2023/04/09 15:46:20;;;;;;;5.00;4.40;;;;;;;16.07;54.56;101198.10;216241;1251;60426;-73
2023/04/09 15:51:13;;;;;;;7.80;6.40;;;;;;;15.86;55.18;101203.65;216273;1251;73592;-73
2023/04/09 15:56:06;;;;;;;8.70;5.70;;;;;;;15.95;55.06;101202.29;216230;1253;60445;-74
2023/04/09 16:01:05;;;;;;;6.60;5.60;;;;;;;15.96;54.96;101206.30;216176;1253;60459;-74
2023/04/09 16:06:00;;;;;;;6.90;5.80;;;;;;;15.78;55.38;101208.34;215971;1251;67047;-74
2023/04/09 16:10:53;;;;;;;8.20;6.40;;;;;;;15.58;55.71;101213.31;215832;1251;60536;-73
2023/04/09 16:15:48;;;;;;;9.50;6.70;;;;;;;15.38;55.98;101216.19;215834;1251;73596;-74
2023/04/09 16:20:41;;;;;;;9.30;6.80;;;;;;;15.15;56.66;101218.86;216045;1251;72749;-73
2023/04/09 16:25:35;;;;;;;13.40;8.10;;;;;;;14.93;57.53;101217.15;215885;1251;61125;-74
2023/04/09 16:30:28;;;;;;;7.10;6.20;;;;;;;14.69;58.11;101221.67;215855;1251;68122;-72
2023/04/09 16:35:23;;;;;;;9.40;7.00;;;;;;;14.45;59.12;101220.56;215808;1251;60559;-71
2023/04/09 16:40:20;;;;;;;6.80;6.00;;;;;;;14.23;59.77;101224.36;215888;1251;72556;-71
2023/04/09 16:45:13;;;;;;;8.60;5.90;;;;;;;14.00;59.89;101223.94;216024;1253;73637;-71
2023/04/09 16:50:09;;;;;;;8.50;5.80;;;;;;;13.79;60.40;101226.48;216142;1255;60434;-70
2023/04/09 16:55:02;;;;;;;5.60;5.00;;;;;;;13.60;61.02;101232.87;216006;1251;65953;-71
2023/04/09 16:59:55;;;;;;;8.10;7.30;;;;;;;13.40;61.65;101230.71;215763;1252;60542;-71
2023/04/09 17:04:49;;;;;;;6.90;6.20;;;;;;;13.23;62.28;101237.40;216078;1253;60450;-71
2023/04/09 17:09:42;;;;;;;8.50;5.80;;;;;;;13.08;62.60;101242.41;216044;1251;72613;-71
2023/04/09 17:14:37;;;;;;;7.00;5.10;;;;;;;12.95;62.92;101243.59;215965;1253;60453;-71
2023/04/09 17:19:30;;;;;;;8.20;6.20;;;;;;;12.82;63.53;101243.39;216147;1251;67696;-71
2023/04/09 17:24:23;;;;;;;7.20;6.50;;;;;;;12.70;64.05;101241.45;216043;1251;60476;-71
2023/04/09 17:29:16;;;;;;;8.80;6.90;;;;;;;12.57;64.44;101240.04;216098;1251;60457;-71
2023/04/09 17:34:10;;;;;;;10.70;8.30;;;;;;;12.46;64.59;101250.77;215993;1251;72304;-71
2023/04/09 17:39:03;;;;;;;18.70;12.20;;;;;;;12.40;64.97;101262.49;216093;1250;60594;-70
2023/04/09 17:43:56;;;;;;;18.20;12.50;;;;;;;12.33;65.19;101261.67;215980;1255;66518;-71
2023/04/09 17:48:51;;;;;;;15.50;10.70;;;;;;;12.27;65.60;101267.64;216069;1253;60394;-71
2023/04/09 17:53:46;;;;;;;11.10;7.50;;;;;;;12.21;65.79;101271.71;215985;1255;73768;-71
2023/04/09 17:58:39;;;;;;;10.50;7.30;;;;;;;12.16;65.84;101277.67;215844;1251;72641;-70
2023/04/09 18:03:31;;;;;;;8.40;7.00;;;;;;;12.14;65.81;101282.36;215881;1251;60426;-71
2023/04/09 18:08:25;;;;;;;9.10;7.30;;;;;;;12.15;65.71;101284.45;216066;1251;67011;-71
2023/04/09 18:13:18;;;;;;;11.50;8.00;;;;;;;12.14;65.71;101293.98;215999;1251;60642;-71
2023/04/09 18:18:11;;;;;;;10.00;8.60;;;;;;;12.11;65.65;101302.10;216017;1251;60527;-71
2023/04/09 18:23:04;;;;;;;10.20;7.20;;;;;;;12.09;65.78;101309.52;216015;1251;72354;-71
2023/04/09 18:27:57;;;;;;;7.70;6.80;;;;;;;12.04;65.93;101313.95;215887;1253;60471;-72
2023/04/09 18:32:51;;;;;;;8.00;6.50;;;;;;;12.03;66.08;101319.13;215998;1251;60544;-71
2023/04/09 18:37:44;;;;;;;9.90;7.60;;;;;;;11.99;66.32;101324.27;215818;1251;60568;-71
2023/04/09 18:42:38;;;;;;;10.30;8.00;;;;;;;11.96;66.52;101324.04;215893;1251;73445;-72
2023/04/09 18:47:30;;;;;;;9.70;8.50;;;;;;;11.95;66.72;101329.91;215964;1251;70597;-71
2023/04/09 18:52:23;;;;;;;9.20;7.60;;;;;;;11.92;66.99;101330.20;215932;1251;60470;-71
2023/04/09 18:57:16;;;;;;;10.60;8.30;;;;;;;11.89;67.19;101335.66;215916;1251;60597;-71
2023/04/09 19:02:09;;;;;;;10.10;8.40;;;;;;;11.86;67.41;101339.23;216039;1251;60596;-71
2023/04/09 19:07:02;;;;;;;11.90;9.30;;;;;;;11.82;67.63;101332.04;215881;1253;60404;-71
2023/04/09 19:11:56;;;;;;;10.60;8.50;;;;;;;11.77;67.73;101328.30;216027;1251;60468;-72
2023/04/09 19:16:49;;;;;;;12.30;8.20;;;;;;;11.73;68.15;101328.36;216083;1251;61550;-72
2023/04/09 19:21:42;;;;;;;17.00;10.90;;;;;;;11.69;68.23;101330.70;216052;1251;67358;-72
2023/04/09 19:26:35;;;;;;;8.90;8.00;;;;;;;11.64;68.41;101331.13;215893;1251;60448;-72
2023/04/09 19:31:28;;;;;;;12.70;9.20;;;;;;;11.56;68.62;101331.46;215795;1251;60978;-73
2023/04/09 19:36:22;;;;;;;13.80;8.80;;;;;;;11.50;68.75;101334.63;215912;1255;73877;-72
2023/04/09 19:41:15;;;;;;;16.60;11.00;;;;;;;11.45;68.87;101330.34;215976;1251;60635;-72
2023/04/09 19:46:08;;;;;;;15.40;11.20;;;;;;;11.36;68.99;101331.70;215985;1251;67020;-72
2023/04/09 19:51:01;;;;;;;12.70;10.20;;;;;;;11.28;69.17;101328.73;216040;1251;60425;-71
2023/04/09 19:55:54;;;;;;;12.30;9.10;;;;;;;11.20;69.29;101324.21;215995;1251;76045;-72
2023/04/09 20:00:47;;;;;;;13.00;10.30;;;;;;;11.13;69.58;101323.00;215963;1255;60506;-72
2023/04/09 20:05:40;;;;;;;12.40;9.60;;;;;;;11.07;69.82;101329.27;216154;1250;60562;-73
2023/04/09 20:10:34;;;;;;;12.80;10.30;;;;;;;10.99;69.86;101328.73;216035;1251;60541;-72
2023/04/09 20:15:27;;;;;;;13.80;11.00;;;;;;;10.91;69.97;101332.52;216094;1253;60421;-72
2023/04/09 20:20:20;;;;;;;12.70;9.70;;;;;;;10.85;70.13;101331.66;216209;1251;60319;-72
2023/04/09 20:25:13;;;;;;;14.70;11.10;;;;;;;10.78;70.19;101331.64;216006;1251;60434;-72
2023/04/09 20:30:07;;;;;;;14.40;12.10;;;;;;;10.73;70.44;101335.52;216146;1251;60534;-73
2023/04/09 20:35:00;;;;;;;14.10;11.00;;;;;;;10.68;70.51;101333.84;216033;1253;68070;-73
2023/04/09 20:39:53;;;;;;;13.10;11.20;;;;;;;10.63;70.42;101332.83;215937;1252;60439;-72
2023/04/09 20:44:47;;;;;;;12.60;11.10;;;;;;;10.55;70.65;101334.52;216025;1251;60535;-73
2023/04/09 20:49:41;;;;;;;17.90;11.80;;;;;;;10.46;70.90;101335.33;215759;1255;73325;-73
2023/04/09 20:54:34;;;;;;;13.40;11.40;;;;;;;10.37;70.53;101337.67;216003;1253;60565;-74
2023/04/09 20:59:27;;;;;;;13.20;10.50;;;;;;;10.24;70.89;101335.55;215912;1251;60463;-72
2023/04/09 21:04:20;;;;;;;12.70;11.30;;;;;;;10.14;70.89;101330.77;216015;1251;61171;-72
2023/04/09 21:09:14;;;;;;;14.40;11.90;;;;;;;10.05;71.18;101327.73;216177;1251;73794;-72
2023/04/09 21:15:04;;;;;;;12.40;11.00;;;;;;;9.97;71.46;101322.47;215835;1251;72449;-74
2023/04/09 21:20:03;;;;;;;12.60;10.40;;;;;;;9.86;71.30;101319.03;216133;1255;61229;-73
2023/04/09 21:25:35;;;;;;;10.90;9.60;;;;;;;9.73;71.16;101317.79;215877;1253;66791;-72
2023/04/09 21:30:34;;;;;;;13.80;10.20;;;;;;;9.59;71.01;101319.11;215961;1251;60453;-73
2023/04/09 21:35:27;;;;;;;13.00;10.10;;;;;;;9.45;71.22;101321.61;216183;1253;74831;-72
2023/04/09 21:40:20;;;;;;;11.90;9.10;;;;;;;9.33;71.45;101317.42;216028;1253;73908;-72
2023/04/09 21:45:13;;;;;;;13.10;11.10;;;;;;;9.18;71.27;101316.61;216495;1252;60541;-73
2023/04/09 21:50:07;;;;;;;12.00;10.20;;;;;;;9.03;71.39;101314.91;216098;1253;60525;-73
2023/04/09 21:55:00;;;;;;;15.20;10.40;;;;;;;8.88;71.56;101319.78;216113;1255;60560;-72
2023/04/09 21:59:53;;;;;;;12.00;9.60;;;;;;;8.74;71.00;101320.67;216433;1255;60460;-73
2023/04/09 22:04:45;;;;;;;11.80;9.30;;;;;;;8.58;71.65;101327.58;216102;1253;60493;-72
2023/04/09 22:09:38;;;;;;;10.20;8.90;;;;;;;8.46;71.42;101329.04;216284;1251;60461;-72
2023/04/09 22:14:32;;;;;;;11.00;8.80;;;;;;;8.33;71.37;101327.53;216123;1251;60457;-72
2023/04/09 22:19:25;;;;;;;8.80;7.10;;;;;;;8.22;71.68;101324.88;216160;1253;60431;-72
2023/04/09 22:24:41;;;;;;;9.10;7.80;;;;;;;8.13;71.67;101330.93;216071;1252;73823;-74